Time;durP1;ratioP1;P1;durP2;ratioP2;P2;SDS_P1;SDS_P2;PMS_P1;PMS_P2;Temp;Humidity;BMP_temperature;BMP_pressure;BME280_temperature;BME280_humidity;BME280_pressure;Samples;Min_cycle;Max_cycle;Signal;HPM_P1;HPM_P2
2022/05/13 00:01:01;;;;;;;10.00;4.32;;;12.00;99.90;;;;;;5060312;28;20052;-53
2022/05/13 00:03:27;;;;;;;10.13;4.75;;;12.10;99.90;;;;;;5060741;28;20045;-53
2022/05/13 00:05:53;;;;;;;11.20;4.32;;;12.10;99.90;;;;;;5060339;28;20067;-53
2022/05/13 00:08:18;;;;;;;10.15;3.75;;;12.10;99.90;;;;;;5042725;28;20049;-53
2022/05/13 00:10:44;;;;;;;12.35;4.55;;;12.10;99.90;;;;;;5060540;28;20059;-53
2022/05/13 00:13:11;;;;;;;11.40;4.20;;;12.10;99.90;;;;;;5060379;28;20043;-53
2022/05/13 00:15:36;;;;;;;12.57;4.85;;;12.10;99.90;;;;;;5060758;28;20051;-53
2022/05/13 00:18:02;;;;;;;10.23;3.88;;;12.00;99.90;;;;;;5059549;28;20401;-53
2022/05/13 00:20:28;;;;;;;11.90;4.50;;;12.00;99.90;;;;;;5060638;28;20117;-53
2022/05/13 00:22:56;;;;;;;10.73;4.53;;;12.10;99.90;;;;;;5041847;28;20314;-52
2022/05/13 00:25:28;;;;;;;11.90;4.95;;;12.00;99.90;;;;;;5060333;28;20036;-53
2022/05/13 00:27:55;;;;;;;;;;;12.10;99.90;;;;;;5060620;28;20045;-52
2022/05/13 00:30:20;;;;;;;9.48;3.80;;;12.00;99.90;;;;;;5060186;28;19925;-53
2022/05/13 00:32:48;;;;;;;10.43;4.68;;;12.00;99.90;;;;;;5060101;28;20144;-52
2022/05/13 00:35:15;;;;;;;13.38;4.88;;;12.10;99.90;;;;;;5041657;28;20052;-53
2022/05/13 00:37:42;;;;;;;12.82;4.95;;;12.00;99.90;;;;;;5042162;28;20049;-53
2022/05/13 00:40:10;;;;;;;12.88;4.90;;;12.00;99.90;;;;;;5059519;28;20037;-52
2022/05/13 00:42:36;;;;;;;10.73;4.53;;;12.00;99.90;;;;;;5059748;28;20091;-53
2022/05/13 00:45:01;;;;;;;11.40;4.55;;;12.10;99.90;;;;;;5059944;28;20041;-53
2022/05/13 00:47:27;;;;;;;12.25;4.90;;;12.10;99.90;;;;;;5059455;28;20056;-54
2022/05/13 00:49:55;;;;;;;13.43;5.15;;;12.10;99.90;;;;;;5060075;28;20432;-51
2022/05/13 00:52:22;;;;;;;13.68;5.18;;;12.10;99.90;;;;;;5040511;28;20045;-53
2022/05/13 00:54:48;;;;;;;12.55;5.00;;;12.10;99.90;;;;;;5042137;28;20095;-53
2022/05/13 00:57:15;;;;;;;15.73;5.50;;;12.10;99.90;;;;;;5059299;28;20048;-52
2022/05/13 00:59:43;;;;;;;12.07;5.82;;;12.10;99.90;;;;;;5059645;28;20047;-51
2022/05/13 01:02:09;;;;;;;13.82;5.88;;;12.00;99.90;;;;;;5059597;28;20045;-52
2022/05/13 01:04:38;;;;;;;11.88;5.18;;;12.10;99.90;;;;;;5059469;28;20074;-52
2022/05/13 01:07:12;;;;;;;14.50;6.63;;;12.10;99.90;;;;;;5059741;28;20060;-52
2022/05/13 01:09:43;;;;;;;12.18;4.95;;;12.10;99.90;;;;;;5058905;28;20071;-53
2022/05/13 01:12:14;;;;;;;14.80;6.55;;;12.10;99.90;;;;;;5059493;28;20052;-53
2022/05/13 01:14:45;;;;;;;12.90;5.20;;;12.10;99.90;;;;;;5059315;28;20047;-53
2022/05/13 01:20:05;;;;;;;14.57;5.93;;;12.10;99.90;;;;;;5059510;28;20053;-54
2022/05/13 01:22:43;;;;;;;14.70;5.82;;;12.10;99.90;;;;;;5058556;28;20098;-53
2022/05/13 01:25:11;;;;;;;17.20;5.57;;;12.10;99.90;;;;;;5059481;28;20065;-54
2022/05/13 01:27:38;;;;;;;15.65;5.28;;;12.20;99.90;;;;;;5058959;28;20056;-54
2022/05/13 01:30:05;;;;;;;12.93;5.80;;;12.10;99.90;;;;;;5059070;28;20041;-53
2022/05/13 01:32:30;;;;;;;14.27;5.78;;;12.10;99.90;;;;;;5059182;28;20049;-53
2022/05/13 01:34:56;;;;;;;15.15;5.75;;;12.10;99.90;;;;;;5059049;28;20102;-53
2022/05/13 01:37:22;;;;;;;15.40;5.20;;;12.10;99.90;;;;;;5041183;28;20076;-53
2022/05/13 01:39:47;;;;;;;13.82;5.30;;;12.10;99.90;;;;;;5058636;28;20045;-53
2022/05/13 01:42:13;;;;;;;12.93;5.07;;;12.10;99.90;;;;;;5058882;28;20049;-54
2022/05/13 01:44:39;;;;;;;15.88;5.10;;;12.10;99.90;;;;;;5058790;28;20080;-52
2022/05/13 01:47:04;;;;;;;16.00;5.18;;;12.00;99.90;;;;;;5058892;28;20100;-53
2022/05/13 01:49:30;;;;;;;12.27;4.53;;;12.10;99.90;;;;;;5040956;28;20085;-53
2022/05/13 01:51:56;;;;;;;15.20;5.82;;;12.10;99.90;;;;;;5040900;28;20128;-53
2022/05/13 01:54:22;;;;;;;14.65;4.93;;;12.10;99.90;;;;;;5059041;28;20096;-53
2022/05/13 01:56:47;;;;;;;15.60;5.30;;;12.10;99.90;;;;;;5058467;28;20045;-53
2022/05/13 01:59:13;;;;;;;11.55;5.30;;;12.10;99.90;;;;;;5059060;28;20048;-50
2022/05/13 02:01:39;;;;;;;12.07;5.07;;;12.20;99.90;;;;;;5058473;28;20080;-53
2022/05/13 02:04:04;;;;;;;16.85;5.88;;;12.20;99.90;;;;;;5061819;28;20040;-52
2022/05/13 02:06:30;;;;;;;17.60;5.72;;;12.20;99.90;;;;;;5062536;28;20041;-53
2022/05/13 02:08:58;;;;;;;14.95;5.18;;;12.10;99.90;;;;;;5062674;28;20056;-53
2022/05/13 02:11:26;;;;;;;15.38;6.28;;;12.10;99.90;;;;;;5062814;28;20072;-53
2022/05/13 02:13:53;;;;;;;17.55;5.90;;;12.20;99.90;;;;;;5062167;28;20047;-54
2022/05/13 02:16:19;;;;;;;16.15;6.15;;;12.10;99.90;;;;;;5063043;28;20076;-53
2022/05/13 02:18:45;;;;;;;17.38;5.20;;;12.20;99.90;;;;;;5061940;28;20460;-51
2022/05/13 02:21:12;;;;;;;22.27;5.80;;;12.20;99.90;;;;;;5062605;28;20045;-53
2022/05/13 02:23:38;;;;;;;18.73;5.25;;;12.20;99.90;;;;;;5062592;28;20056;-51
2022/05/13 02:26:10;;;;;;;17.77;5.60;;;12.10;99.90;;;;;;5062279;28;20049;-53
2022/05/13 02:28:36;;;;;;;21.70;6.38;;;12.30;99.90;;;;;;5062475;28;20045;-52
2022/05/13 02:31:02;;;;;;;15.60;5.50;;;12.10;99.90;;;;;;5061941;28;20096;-51
2022/05/13 02:33:28;;;;;;;17.52;5.60;;;12.10;99.90;;;;;;5062464;28;20056;-52
2022/05/13 02:35:55;;;;;;;16.17;6.50;;;12.20;99.90;;;;;;5062104;28;20070;-53
2022/05/13 02:38:20;;;;;;;15.40;7.07;;;12.10;99.90;;;;;;5062460;28;20047;-50
2022/05/13 02:43:31;;;;;;;15.98;6.05;;;12.20;99.90;;;;;;5061654;28;20081;-53
2022/05/13 02:45:58;;;;;;;19.85;6.60;;;12.20;99.90;;;;;;5062396;28;20055;-53
2022/05/13 02:48:24;;;;;;;17.92;7.00;;;12.10;99.90;;;;;;5061404;28;20048;-53
2022/05/13 02:50:50;;;;;;;15.27;6.18;;;12.10;99.90;;;;;;5062262;28;20037;-53
2022/05/13 02:53:16;;;;;;;18.23;6.38;;;12.10;99.90;;;;;;5062135;28;20054;-53
2022/05/13 02:55:42;;;;;;;19.98;6.25;;;12.10;99.90;;;;;;5061787;28;20436;-52
2022/05/13 02:58:08;;;;;;;19.55;7.13;;;12.10;99.90;;;;;;5061967;28;20029;-53
2022/05/13 03:00:34;;;;;;;15.07;6.25;;;12.10;99.90;;;;;;5061352;28;20052;-53
2022/05/13 03:03:00;;;;;;;20.75;6.35;;;12.10;99.90;;;;;;5062282;28;20041;-52
2022/05/13 03:05:26;;;;;;;20.65;6.50;;;12.20;99.90;;;;;;5061339;28;20043;-52
2022/05/13 03:07:53;;;;;;;24.35;6.32;;;12.10;99.90;;;;;;5061688;28;20128;-53
2022/05/13 03:10:19;;;;;;;19.30;6.90;;;12.10;99.90;;;;;;5061526;28;20045;-52
2022/05/13 03:12:45;;;;;;;16.23;6.30;;;12.10;99.90;;;;;;5043755;28;20049;-53
2022/05/13 03:15:11;;;;;;;19.42;6.47;;;12.10;99.90;;;;;;5060465;28;20056;-52
2022/05/13 03:17:39;;;;;;;23.83;6.82;;;12.10;99.90;;;;;;5061226;28;20487;-52
2022/05/13 03:20:07;;;;;;;18.23;6.55;;;12.10;99.90;;;;;;5061764;28;20056;-53
2022/05/13 03:22:33;;;;;;;19.30;6.28;;;12.10;99.90;;;;;;5061021;28;20069;-53
2022/05/13 03:24:59;;;;;;;23.27;7.25;;;12.10;99.90;;;;;;5061640;28;20102;-51
2022/05/13 03:27:26;;;;;;;19.48;6.63;;;12.00;99.90;;;;;;5061321;28;20091;-53
2022/05/13 03:29:52;;;;;;;19.48;6.43;;;12.10;99.90;;;;;;5061029;28;20072;-53
2022/05/13 03:32:18;;;;;;;21.88;6.78;;;12.10;99.90;;;;;;5061298;28;20052;-53
2022/05/13 03:34:43;;;;;;;18.55;6.25;;;12.10;99.90;;;;;;5061064;28;20037;-53
2022/05/13 03:37:09;;;;;;;18.80;6.32;;;12.10;99.90;;;;;;5061494;28;20037;-52
2022/05/13 03:39:36;;;;;;;17.92;7.18;;;12.00;99.90;;;;;;5060594;28;20041;-53
2022/05/13 03:42:01;;;;;;;19.35;7.60;;;12.00;99.90;;;;;;5061332;28;20045;-52
2022/05/13 03:44:27;;;;;;;24.70;6.70;;;12.00;99.90;;;;;;5060534;28;20049;-52
2022/05/13 03:46:53;;;;;;;19.20;6.80;;;12.00;99.90;;;;;;5060932;28;20037;-51
2022/05/13 03:49:18;;;;;;;20.55;6.05;;;12.10;99.90;;;;;;5060845;28;20045;-52
2022/05/13 03:51:44;;;;;;;16.70;6.32;;;12.00;99.90;;;;;;5060893;28;20097;-53
2022/05/13 03:54:10;;;;;;;25.20;7.80;;;12.00;99.90;;;;;;5061229;28;20051;-54
2022/05/13 03:56:35;;;;;;;23.60;7.05;;;12.00;99.90;;;;;;5042459;28;20067;-53
2022/05/13 03:59:03;;;;;;;20.67;7.20;;;12.00;99.90;;;;;;5061133;28;20041;-55
2022/05/13 04:01:28;;;;;;;23.35;7.22;;;12.00;99.90;;;;;;5060276;28;20059;-53
2022/05/13 04:03:54;;;;;;;21.60;6.75;;;12.00;99.90;;;;;;5061011;28;20065;-53
2022/05/13 04:09:05;;;;;;;21.30;6.90;;;12.10;99.90;;;;;;5060360;28;20052;-52
2022/05/13 04:11:34;;;;;;;20.27;6.20;;;12.00;99.90;;;;;;5060662;28;20045;-52
2022/05/13 04:16:44;;;;;;;21.45;5.85;;;12.00;99.90;;;;;;5060488;28;20045;-52
2022/05/13 04:19:12;;;;;;;23.35;7.63;;;12.00;99.90;;;;;;5060094;28;20094;-53
2022/05/13 04:21:39;;;;;;;20.10;6.78;;;12.00;99.90;;;;;;5060506;28;20083;-53
2022/05/13 04:24:09;;;;;;;18.10;7.18;;;12.00;99.90;;;;;;5060525;28;20080;-53
2022/05/13 04:26:35;;;;;;;15.55;6.20;;;12.00;99.90;;;;;;5059647;28;20068;-53
2022/05/13 04:29:01;;;;;;;16.00;5.53;;;12.00;99.90;;;;;;5060521;28;20045;-53
2022/05/13 04:31:32;;;;;;;18.88;5.88;;;12.10;99.90;;;;;;5059553;28;20051;-53
2022/05/13 04:34:00;;;;;;;13.75;5.53;;;12.10;99.90;;;;;;5060335;28;20602;-55
2022/05/13 04:36:26;;;;;;;18.00;5.35;;;12.10;99.90;;;;;;5059963;28;20056;-53
2022/05/13 04:38:53;;;;;;;18.10;5.43;;;12.10;99.90;;;;;;5059841;28;20055;-53
2022/05/13 04:44:06;;;;;;;15.95;5.35;;;12.20;99.90;;;;;;5059272;28;20048;-51
2022/05/13 04:46:32;;;;;;;19.63;4.60;;;12.20;99.90;;;;;;5060213;28;20037;-53
2022/05/13 04:48:59;;;;;;;18.83;4.43;;;12.20;99.90;;;;;;5041526;28;20052;-52
2022/05/13 04:51:25;;;;;;;21.42;4.97;;;12.30;99.90;;;;;;5041897;28;20041;-52
2022/05/13 04:53:53;;;;;;;15.98;4.30;;;12.30;99.90;;;;;;5059948;28;20051;-53
2022/05/13 04:56:20;;;;;;;18.70;5.53;;;12.30;99.90;;;;;;5059312;28;20045;-53
2022/05/13 04:58:47;;;;;;;12.77;4.03;;;12.30;99.90;;;;;;5060075;28;20551;-52
2022/05/13 05:01:13;;;;;;;15.23;5.20;;;12.30;99.90;;;;;;5059211;28;20083;-50
2022/05/13 05:03:40;;;;;;;12.40;4.13;;;12.40;99.90;;;;;;5059618;28;20576;-51
2022/05/13 05:06:07;;;;;;;15.10;4.30;;;12.30;99.90;;;;;;5059430;28;20047;-53
2022/05/13 05:08:34;;;;;;;11.82;3.40;;;12.30;99.90;;;;;;5059223;28;20060;-52
2022/05/13 05:11:02;;;;;;;11.95;3.58;;;12.40;99.90;;;;;;5059560;28;20083;-51
2022/05/13 05:13:30;;;;;;;15.77;3.83;;;12.30;99.90;;;;;;5041002;28;20056;-53
2022/05/13 05:15:57;;;;;;;15.55;3.20;;;12.40;99.90;;;;;;5041663;28;20053;-51
2022/05/13 05:18:23;;;;;;;11.23;3.60;;;12.40;99.90;;;;;;5058533;28;20029;-51
2022/05/13 05:20:49;;;;;;;11.20;3.60;;;12.50;99.90;;;;;;5059338;28;20041;-53
2022/05/13 05:23:24;;;;;;;12.63;2.95;;;12.40;99.90;;;;;;5059163;28;20077;-52
2022/05/13 05:25:50;;;;;;;10.05;3.47;;;12.40;99.90;;;;;;5059227;28;20076;-52
2022/05/13 05:28:16;;;;;;;11.70;3.13;;;12.50;99.90;;;;;;5041309;28;20052;-53
2022/05/13 05:30:43;;;;;;;13.00;3.47;;;12.50;99.90;;;;;;5058547;28;20056;-53
2022/05/13 05:33:10;;;;;;;11.88;3.47;;;12.50;99.90;;;;;;5041623;28;20124;-52
2022/05/13 05:35:36;;;;;;;10.98;3.20;;;12.50;99.90;;;;;;5058565;28;20091;-52
2022/05/13 05:38:03;;;;;;;11.00;3.80;;;12.50;99.90;;;;;;5040432;28;20052;-54
2022/05/13 05:40:28;;;;;;;10.98;3.20;;;12.50;99.90;;;;;;5058847;28;20045;-54
2022/05/13 05:42:54;;;;;;;10.25;2.90;;;12.50;99.90;;;;;;5058904;28;20138;-52
2022/05/13 05:45:22;;;;;;;12.40;2.78;;;12.50;99.90;;;;;;5059034;28;20041;-51
2022/05/13 05:47:48;;;;;;;9.88;2.60;;;12.60;99.90;;;;;;5058390;28;20040;-52
2022/05/13 05:50:18;;;;;;;12.30;3.30;;;12.60;99.90;;;;;;5041337;28;20072;-52
2022/05/13 05:52:44;;;;;;;9.55;2.83;;;12.60;99.90;;;;;;5040676;28;20049;-52
2022/05/13 05:58:00;;;;;;;7.80;2.70;;;12.50;99.90;;;;;;5055791;28;20048;-50
2022/05/13 06:00:27;;;;;;;11.60;2.77;;;12.50;99.90;;;;;;5055556;28;20068;-53
2022/05/13 06:02:54;;;;;;;10.60;2.70;;;12.60;99.90;;;;;;5056019;28;20116;-52
2022/05/13 06:05:19;;;;;;;11.75;3.00;;;12.50;99.90;;;;;;5054881;28;20056;-53
2022/05/13 06:07:46;;;;;;;10.35;2.60;;;12.50;99.90;;;;;;5055635;28;20452;-54
2022/05/13 06:10:13;;;;;;;11.55;3.08;;;12.60;99.90;;;;;;5037075;28;20079;-52
2022/05/13 06:12:40;;;;;;;10.20;2.65;;;12.70;99.90;;;;;;5055569;28;20084;-52
2022/05/13 06:15:06;;;;;;;12.23;3.10;;;12.60;99.90;;;;;;5055483;28;20079;-53
2022/05/13 06:17:32;;;;;;;11.20;2.55;;;12.70;99.90;;;;;;5054930;28;20041;-53
2022/05/13 06:19:58;;;;;;;10.15;2.85;;;12.80;99.90;;;;;;5055679;28;20045;-54
2022/05/13 06:22:23;;;;;;;9.32;2.83;;;12.70;99.90;;;;;;5054850;28;20073;-52
2022/05/13 06:24:49;;;;;;;11.18;3.03;;;12.80;99.90;;;;;;5037471;28;20052;-54
2022/05/13 06:27:15;;;;;;;13.60;2.97;;;12.80;99.90;;;;;;5055026;28;20045;-53
2022/05/13 06:29:40;;;;;;;12.95;2.85;;;12.90;99.90;;;;;;5055122;28;20048;-51
2022/05/13 06:32:06;;;;;;;10.05;2.72;;;12.80;99.90;;;;;;5055384;28;20136;-53
2022/05/13 06:34:32;;;;;;;10.68;2.80;;;13.00;99.90;;;;;;5055027;28;20117;-53
2022/05/13 06:36:58;;;;;;;9.60;2.80;;;13.00;99.90;;;;;;5055457;28;20100;-53
2022/05/13 06:39:24;;;;;;;10.75;2.80;;;13.00;99.90;;;;;;5054673;28;20045;-53
2022/05/13 06:41:49;;;;;;;11.07;3.35;;;13.10;99.90;;;;;;5055353;28;20475;-53
2022/05/13 06:44:18;;;;;;;7.65;2.47;;;13.10;99.90;;;;;;5036741;28;20063;-51
2022/05/13 06:46:44;;;;;;;11.32;2.58;;;13.30;99.90;;;;;;5055476;28;20245;-52
2022/05/13 06:49:12;;;;;;;9.07;2.30;;;13.10;99.90;;;;;;5056150;28;20041;-53
2022/05/13 06:51:40;;;;;;;11.05;2.85;;;13.30;99.90;;;;;;5058868;28;20041;-53
2022/05/13 06:54:09;;;;;;;13.93;2.92;;;13.30;99.90;;;;;;5058686;28;20083;-52
2022/05/13 06:56:37;;;;;;;10.45;2.72;;;13.30;99.90;;;;;;5058253;28;20052;-53
2022/05/13 06:59:04;;;;;;;13.55;2.50;;;13.30;99.90;;;;;;5058910;28;20052;-53
2022/05/13 07:01:30;;;;;;;9.73;2.58;;;13.10;99.90;;;;;;5058258;28;20059;-53
2022/05/13 07:03:56;;;;;;;7.50;2.72;;;13.10;99.90;;;;;;5058724;28;20069;-54
2022/05/13 07:06:21;;;;;;;10.68;2.97;;;13.10;99.90;;;;;;5058180;28;20408;-53
2022/05/13 07:08:50;;;;;;;6.45;2.42;;;13.20;99.90;;;;;;5058213;28;20127;-53
2022/05/13 07:11:20;;;;;;;7.90;2.83;;;13.10;99.90;;;;;;5058762;28;20083;-53
2022/05/13 07:13:46;;;;;;;8.15;2.38;;;13.10;99.90;;;;;;5058000;28;20075;-53
2022/05/13 07:16:11;;;;;;;8.90;2.30;;;13.20;99.90;;;;;;5040986;28;20456;-52
2022/05/13 07:18:38;;;;;;;13.57;3.45;;;13.10;99.90;;;;;;5057661;28;20040;-54
2022/05/13 07:21:04;;;;;;;9.75;3.17;;;13.10;99.90;;;;;;5058240;28;20049;-53
2022/05/13 07:23:30;;;;;;;11.70;2.60;;;13.40;99.90;;;;;;5058387;28;20628;-53
2022/05/13 07:25:57;;;;;;;9.73;2.30;;;13.60;99.90;;;;;;5058250;28;20041;-52
2022/05/13 07:28:23;;;;;;;9.68;2.20;;;13.80;99.90;;;;;;5058258;28;20488;-52
2022/05/13 07:30:49;;;;;;;8.98;1.98;;;14.10;99.90;;;;;;5057311;28;20149;-52
2022/05/13 07:33:15;;;;;;;9.00;2.50;;;14.00;99.90;;;;;;5058575;28;20084;-53
2022/05/13 07:35:41;;;;;;;10.50;2.60;;;14.20;99.90;;;;;;5057479;28;20056;-54
2022/05/13 07:38:07;;;;;;;9.32;2.25;;;14.50;99.90;;;;;;5058132;28;20289;-51
2022/05/13 07:43:18;;;;;;;8.00;1.98;;;14.50;99.90;;;;;;5057521;28;20060;-53
2022/05/13 07:45:44;;;;;;;9.70;2.45;;;14.20;99.90;;;;;;5058337;28;20053;-52
2022/05/13 07:48:09;;;;;;;7.18;2.17;;;13.90;99.90;;;;;;5057196;28;20056;-53
2022/05/13 07:50:35;;;;;;;7.47;2.10;;;14.20;99.90;;;;;;5057947;28;20052;-53
2022/05/13 07:53:01;;;;;;;10.13;3.05;;;14.20;99.90;;;;;;5057005;28;20053;-53
2022/05/13 07:55:27;;;;;;;12.18;2.05;;;13.80;99.90;;;;;;5057387;28;20059;-51
2022/05/13 07:57:53;;;;;;;10.07;2.00;;;13.80;99.90;;;;;;5057553;28;20047;-52
2022/05/13 08:00:27;;;;;;;8.52;2.38;;;13.70;99.90;;;;;;5057084;28;20084;-53
2022/05/13 08:03:05;;;;;;;9.75;2.22;;;13.80;99.90;;;;;;5057731;28;20049;-55
2022/05/13 08:05:40;;;;;;;10.10;2.10;;;13.70;99.90;;;;;;5056671;28;20037;-53
2022/05/13 08:08:08;;;;;;;12.20;2.42;;;13.70;99.90;;;;;;5057321;28;20072;-52
2022/05/13 08:10:36;;;;;;;9.80;2.20;;;13.80;99.90;;;;;;5057064;28;20048;-53
2022/05/13 08:13:03;;;;;;;7.80;2.40;;;13.90;99.90;;;;;;5057382;28;20037;-50
2022/05/13 08:15:29;;;;;;;13.88;2.33;;;13.80;99.90;;;;;;5057498;28;20053;-51
2022/05/13 08:17:56;;;;;;;11.02;1.95;;;13.80;99.90;;;;;;5056311;28;20041;-53
2022/05/13 08:20:22;;;;;;;11.90;2.20;;;13.70;99.90;;;;;;5057317;28;20119;-53
2022/05/13 08:22:48;;;;;;;10.00;2.20;;;13.70;99.90;;;;;;5039041;28;20057;-53
2022/05/13 08:25:14;;;;;;;6.65;1.88;;;13.60;99.90;;;;;;5057461;28;20044;-52
2022/05/13 08:27:40;;;;;;;7.55;2.50;;;13.60;99.90;;;;;;5056893;28;20416;-52
2022/05/13 08:30:06;;;;;;;6.82;2.15;;;13.70;99.90;;;;;;5056548;28;20048;-53
2022/05/13 08:32:32;;;;;;;7.75;2.20;;;13.80;99.90;;;;;;5056807;28;20325;-52
2022/05/13 08:34:58;;;;;;;9.98;2.55;;;13.80;99.90;;;;;;5055910;28;20147;-53
2022/05/13 08:37:24;;;;;;;7.72;2.05;;;13.70;99.90;;;;;;5056767;28;20076;-53
2022/05/13 08:39:49;;;;;;;12.40;2.40;;;13.70;99.90;;;;;;5056101;28;20051;-53
2022/05/13 08:42:38;;;;;;;7.85;2.10;;;13.70;99.90;;;;;;5037886;28;20938;-50
2022/05/13 08:45:10;;;;;;;10.38;2.40;;;14.10;99.90;;;;;;5056757;28;20524;-53
2022/05/13 08:47:55;;;;;;;9.45;2.63;;;14.40;99.90;;;;;;5056009;28;20451;-54
2022/05/13 08:50:32;;;;;;;9.90;2.38;;;14.70;99.90;;;;;;5056831;28;20049;-53
2022/05/13 08:53:22;;;;;;;9.45;2.00;;;14.90;99.90;;;;;;5055918;28;20071;-54
2022/05/13 08:55:50;;;;;;;7.60;2.25;;;14.70;99.90;;;;;;5057244;28;20045;-54
2022/05/13 08:58:42;;;;;;;8.27;2.00;;;14.60;99.90;;;;;;5059120;28;20152;-50
2022/05/13 09:01:12;;;;;;;6.95;2.00;;;14.50;99.90;;;;;;5058998;28;20045;-51
2022/05/13 09:03:40;;;;;;;8.30;2.20;;;14.60;99.90;;;;;;5059274;28;20095;-54
2022/05/13 09:06:09;;;;;;;8.32;1.98;;;14.50;99.90;;;;;;5059600;28;20041;-50
2022/05/13 09:08:35;;;;;;;5.55;1.75;;;14.60;99.90;;;;;;5057583;28;20061;-54
2022/05/13 09:11:06;;;;;;;8.98;1.92;;;14.80;99.90;;;;;;5059786;28;20029;-54
2022/05/13 09:13:59;;;;;;;7.50;1.85;;;14.70;99.90;;;;;;5058116;28;20049;-51
2022/05/13 09:17:09;;;;;;;6.88;1.65;;;14.60;99.90;;;;;;5059699;28;20543;-54
2022/05/13 09:19:41;;;;;;;7.38;2.00;;;14.50;99.90;;;;;;5059361;28;20095;-53
2022/05/13 09:22:09;;;;;;;9.40;2.00;;;14.70;99.90;;;;;;5058652;28;20166;-53
2022/05/13 09:24:35;;;;;;;5.07;1.38;;;14.90;99.90;;;;;;5059627;28;20037;-53
2022/05/13 09:27:01;;;;;;;6.93;2.15;;;14.90;99.90;;;;;;5058736;28;20049;-54
2022/05/13 09:29:44;;;;;;;7.32;1.80;;;14.80;99.90;;;;;;5059167;28;20091;-54
2022/05/13 09:32:23;;;;;;;6.20;1.88;;;14.70;99.90;;;;;;5024658;28;20033;-54
2022/05/13 09:35:05;;;;;;;7.88;1.58;;;14.40;99.90;;;;;;5058737;28;20428;-54
2022/05/13 09:37:37;;;;;;;6.38;2.28;;;14.40;99.90;;;;;;5059325;28;20115;-54
2022/05/13 09:40:21;;;;;;;8.35;1.73;;;14.50;99.90;;;;;;5058835;28;20045;-53
2022/05/13 09:42:57;;;;;;;7.43;1.85;;;14.50;99.90;;;;;;5058672;28;20064;-54
2022/05/13 09:45:27;;;;;;;7.43;1.88;;;14.40;99.90;;;;;;5059334;28;20048;-54
2022/05/13 09:48:20;;;;;;;9.20;1.95;;;14.40;99.90;;;;;;5058222;28;20044;-54
2022/05/13 09:50:55;;;;;;;9.95;2.00;;;14.30;99.90;;;;;;5059164;28;20041;-53
2022/05/13 09:53:21;;;;;;;10.02;2.10;;;14.30;99.90;;;;;;5058809;28;20044;-54
2022/05/13 09:55:48;;;;;;;8.55;2.35;;;14.40;99.90;;;;;;5040877;28;20049;-52
2022/05/13 09:58:23;;;;;;;7.63;1.88;;;14.50;99.90;;;;;;5058949;28;20044;-53
2022/05/13 10:00:55;;;;;;;11.93;2.08;;;14.60;99.90;;;;;;5058356;28;20044;-53
2022/05/13 10:03:25;;;;;;;10.18;2.10;;;14.90;99.90;;;;;;5058990;28;20037;-54
2022/05/13 10:06:08;;;;;;;9.65;2.58;;;14.90;99.90;;;;;;5058875;28;20055;-51
2022/05/13 10:08:53;;;;;;;9.55;2.67;;;15.10;99.90;;;;;;5058521;28;20052;-51
2022/05/13 10:14:31;;;;;;;8.90;2.03;;;15.10;99.90;;;;;;5058305;28;20053;-53
2022/05/13 10:17:12;;;;;;;10.60;1.95;;;15.50;99.90;;;;;;5058385;28;20056;-53
2022/05/13 10:19:46;;;;;;;5.82;1.67;;;15.80;99.90;;;;;;5058720;28;20045;-53
2022/05/13 10:22:39;;;;;;;7.70;2.00;;;15.40;99.90;;;;;;5057986;28;20053;-53
2022/05/13 10:25:23;;;;;;;8.05;1.75;;;15.30;99.90;;;;;;5061542;28;20056;-52
2022/05/13 10:27:57;;;;;;;7.50;1.75;;;15.30;99.90;;;;;;5062489;28;20073;-52
2022/05/13 10:30:44;;;;;;;7.00;1.75;;;15.30;99.90;;;;;;5062275;28;20048;-53
2022/05/13 10:33:36;;;;;;;9.65;2.35;;;15.30;99.90;;;;;;5062912;28;20083;-49
2022/05/13 10:36:08;;;;;;;6.28;1.90;;;15.50;99.90;;;;;;5062356;28;20047;-51
2022/05/13 10:38:53;;;;;;;8.15;1.70;;;15.50;99.90;;;;;;5062267;28;20044;-53
2022/05/13 10:41:36;;;;;;;7.35;1.88;;;15.30;99.90;;;;;;5062621;28;20041;-53
2022/05/13 10:44:06;;;;;;;7.80;2.00;;;15.30;99.90;;;;;;5061739;28;20116;-52
2022/05/13 10:46:50;;;;;;;5.75;1.60;;;15.30;99.90;;;;;;5062379;28;20044;-52
2022/05/13 10:49:16;;;;;;;7.93;1.58;;;15.20;99.90;;;;;;5061883;28;20044;-53
2022/05/13 10:51:59;;;;;;;9.02;1.70;;;15.20;99.90;;;;;;5061995;28;20132;-53
2022/05/13 10:54:26;;;;;;;7.25;1.83;;;15.10;99.90;;;;;;5062309;28;20052;-54
2022/05/13 10:57:24;;;;;;;7.78;2.85;;;15.00;99.90;;;;;;5061453;28;20043;-52
2022/05/13 11:00:19;;;;;;;8.95;2.80;;;14.80;99.90;;;;;;5061822;28;20417;-54
2022/05/13 11:03:14;;;;;;;9.07;2.20;;;14.70;99.90;;;;;;5062144;28;20041;-54
2022/05/13 11:06:02;;;;;;;9.20;2.20;;;14.80;99.90;;;;;;5016543;28;20068;-53
2022/05/13 11:08:37;;;;;;;8.40;1.92;;;14.90;99.90;;;;;;5061190;28;20439;-54
2022/05/13 11:11:06;;;;;;;8.57;2.97;;;14.90;99.90;;;;;;5061917;28;20107;-52
2022/05/13 11:13:37;;;;;;;11.13;2.20;;;15.10;99.90;;;;;;5061292;28;20566;-53
2022/05/13 11:16:31;;;;;;;9.55;2.28;;;14.90;99.90;;;;;;5062189;28;20052;-53
2022/05/13 11:19:24;;;;;;;8.82;2.20;;;14.80;99.90;;;;;;5050247;28;20049;-51
2022/05/13 11:22:05;;;;;;;8.43;2.67;;;15.00;99.90;;;;;;5061102;28;20055;-54
2022/05/13 11:28:02;;;;;;;11.13;2.65;;;15.10;99.90;;;;;;5061349;28;20059;-54
2022/05/13 11:30:43;;;;;;;9.30;2.70;;;15.00;99.90;;;;;;5061072;28;20045;-53
2022/05/13 11:33:31;;;;;;;9.40;2.22;;;15.20;99.90;;;;;;5061215;28;20083;-52
2022/05/13 11:36:16;;;;;;;9.75;2.30;;;15.10;99.90;;;;;;5060203;28;20044;-51
2022/05/13 11:38:42;;;;;;;10.90;2.63;;;15.00;99.90;;;;;;5060981;28;20045;-52
2022/05/13 11:41:13;;;;;;;10.70;2.80;;;15.10;99.90;;;;;;5060889;28;20041;-52
2022/05/13 11:43:59;;;;;;;11.02;2.17;;;15.10;99.90;;;;;;5059966;28;20397;-53
2022/05/13 11:46:50;;;;;;;8.70;2.45;;;15.20;99.90;;;;;;5061113;28;20053;-53
2022/05/13 11:49:21;;;;;;;12.23;2.78;;;15.10;99.90;;;;;;5060546;28;20041;-52
2022/05/13 11:51:47;;;;;;;9.00;2.33;;;15.10;99.90;;;;;;5060536;28;20087;-52
2022/05/13 11:54:23;;;;;;;10.90;3.15;;;15.20;99.90;;;;;;5060841;28;20283;-52
2022/05/13 11:57:09;;;;;;;9.13;2.08;;;15.50;99.90;;;;;;5060090;28;20052;-52
2022/05/13 11:59:41;;;;;;;11.07;2.08;;;15.50;99.90;;;;;;5060379;28;20052;-53
2022/05/13 12:02:27;;;;;;;9.75;2.58;;;15.40;99.90;;;;;;5060777;28;20048;-53
2022/05/13 12:05:17;;;;;;;8.07;2.28;;;15.40;99.90;;;;;;5059927;28;20074;-52
2022/05/13 12:08:02;;;;;;;9.65;2.53;;;15.50;99.90;;;;;;5042419;28;20120;-53
2022/05/13 12:10:51;;;;;;;8.15;2.30;;;15.50;99.90;;;;;;5060091;28;20140;-52
2022/05/13 12:13:20;;;;;;;10.80;2.30;;;15.50;99.90;;;;;;5060049;28;20037;-53
2022/05/13 12:16:26;;;;;;;11.77;2.55;;;15.90;99.90;;;;;;5060530;28;20049;-52
2022/05/13 12:19:16;;;;;;;9.68;3.08;;;16.20;99.90;;;;;;5059696;28;20049;-53
2022/05/13 12:21:45;;;;;;;10.93;2.95;;;17.00;99.90;;;;;;5060412;28;20052;-54
2022/05/13 12:24:10;;;;;;;11.40;2.28;;;16.50;99.90;;;;;;5060407;28;20579;-53
2022/05/13 12:26:51;;;;;;;6.88;2.03;;;16.30;99.90;;;;;;5059466;28;20063;-53
2022/05/13 12:29:31;;;;;;;10.57;2.22;;;16.20;99.90;;;;;;5059567;28;20471;-54
2022/05/13 12:31:56;;;;;;;10.30;2.05;;;16.60;99.90;;;;;;5059311;28;20064;-53
2022/05/13 12:37:46;;;;;;;11.27;2.53;;;16.40;99.90;;;;;;5060178;28;20052;-54
2022/05/13 12:40:24;;;;;;;7.88;2.08;;;16.60;99.90;;;;;;5041803;28;20102;-54
2022/05/13 12:42:52;;;;;;;8.73;3.53;;;16.50;99.90;;;;;;5059508;28;20428;-53
2022/05/13 12:45:21;;;;;;;10.70;2.40;;;16.60;99.90;;;;;;5041912;28;20094;-53
2022/05/13 12:48:10;;;;;;;8.30;2.20;;;16.80;99.90;;;;;;5058770;28;20048;-54
2022/05/13 12:50:38;;;;;;;9.38;2.30;;;16.60;99.90;;;;;;5059718;28;20037;-54
2022/05/13 12:53:29;;;;;;;10.52;2.25;;;16.60;99.90;;;;;;5059865;28;20163;-55
2022/05/13 12:56:18;;;;;;;8.77;2.33;;;16.60;99.90;;;;;;5059273;28;20041;-54
2022/05/13 12:58:55;;;;;;;8.18;3.00;;;16.50;99.90;;;;;;5059632;28;20109;-55
2022/05/13 13:01:20;;;;;;;7.60;2.00;;;16.00;99.90;;;;;;5058643;28;20029;-54
2022/05/13 13:03:48;;;;;;;6.65;1.70;;;16.20;99.90;;;;;;5059080;28;20055;-54
2022/05/13 13:06:19;;;;;;;9.60;2.10;;;16.40;99.90;;;;;;5059291;28;20036;-54
2022/05/13 13:08:48;;;;;;;9.10;2.08;;;16.80;99.90;;;;;;5041090;28;20131;-54
2022/05/13 13:11:37;;;;;;;6.50;1.77;;;16.50;99.90;;;;;;5059439;28;20047;-54
2022/05/13 13:14:26;;;;;;;8.05;2.10;;;16.50;99.90;;;;;;5058714;28;20045;-53
2022/05/13 13:16:57;;;;;;;9.45;2.20;;;16.10;99.90;;;;;;5050852;28;20041;-55
2022/05/13 13:19:26;;;;;;;9.00;2.08;;;16.20;99.90;;;;;;5059311;28;20844;-54
2022/05/13 13:21:59;;;;;;;8.50;2.03;;;15.90;99.90;;;;;;5058908;28;20098;-55
2022/05/13 13:24:31;;;;;;;10.00;2.08;;;16.10;99.90;;;;;;5059383;28;20066;-55
2022/05/13 13:26:57;;;;;;;11.52;2.75;;;16.10;99.90;;;;;;5058956;28;20092;-54